Time;durP1;ratioP1;P1;durP2;ratioP2;P2;SDS_P1;SDS_P2;PMS_P1;PMS_P2;Temp;Humidity;BMP_temperature;BMP_pressure;BME280_temperature;BME280_humidity;BME280_pressure;Samples;Min_cycle;Max_cycle;Signal;HPM_P1;HPM_P2
2023/10/19 00:00:36;;;;;;;15.73;10.95;;;8.70;99.90;;;;;;5008896;28;20021;-70
2023/10/19 00:03:02;;;;;;;14.95;9.20;;;8.70;99.90;;;;;;5013658;28;20120;-69
2023/10/19 00:05:32;;;;;;;15.40;9.52;;;8.80;99.90;;;;;;5012689;28;20033;-70
2023/10/19 00:07:59;;;;;;;16.00;8.82;;;8.80;99.90;;;;;;5006266;28;20029;-71
2023/10/19 00:10:29;;;;;;;17.33;9.55;;;8.80;99.90;;;;;;5013467;28;20083;-70
2023/10/19 00:13:03;;;;;;;15.02;9.70;;;8.80;99.90;;;;;;4993240;28;20022;-70
2023/10/19 00:15:32;;;;;;;13.30;9.70;;;8.80;99.90;;;;;;5013128;28;20034;-70
2023/10/19 00:18:06;;;;;;;;;;;8.70;99.90;;;;;;5004591;28;20065;-71
2023/10/19 00:23:02;;;;;;;;;;;8.80;99.90;;;;;;5013034;28;20112;-70
2023/10/19 00:25:29;;;;;;;12.90;9.02;;;8.90;99.90;;;;;;5005346;28;19932;-71
2023/10/19 00:27:54;;;;;;;14.90;9.15;;;8.90;99.90;;;;;;5015378;28;20116;-70
2023/10/19 00:30:23;;;;;;;14.05;9.02;;;8.90;99.90;;;;;;5009695;28;20597;-70
2023/10/19 00:32:50;;;;;;;14.77;9.30;;;8.80;99.90;;;;;;4993227;28;20042;-69
2023/10/19 00:35:34;;;;;;;17.35;9.82;;;8.80;99.90;;;;;;5004027;28;20475;-71
2023/10/19 00:38:21;;;;;;;15.73;9.07;;;8.70;99.90;;;;;;5008932;28;20399;-71
2023/10/19 00:40:59;;;;;;;14.50;9.43;;;8.70;99.90;;;;;;5010239;28;20032;-69
2023/10/19 00:43:44;;;;;;;14.70;8.85;;;8.70;99.90;;;;;;5011433;28;20030;-69
2023/10/19 00:48:51;;;;;;;14.52;8.82;;;8.60;99.90;;;;;;5010129;28;20021;-70
2023/10/19 00:53:58;;;;;;;13.73;8.85;;;8.60;99.90;;;;;;5007767;28;20598;-71
2023/10/19 00:56:29;;;;;;;13.60;8.45;;;8.60;99.90;;;;;;5010458;28;20112;-69
2023/10/19 00:59:00;;;;;;;12.23;8.55;;;8.60;99.90;;;;;;5006753;28;20076;-69
2023/10/19 01:01:29;;;;;;;13.27;8.32;;;8.50;99.90;;;;;;5002188;28;20070;-70
2023/10/19 01:03:58;;;;;;;15.30;8.68;;;8.40;99.90;;;;;;5008591;28;20029;-70
2023/10/19 01:06:31;;;;;;;14.48;9.35;;;8.40;99.90;;;;;;5009249;28;20025;-70
2023/10/19 01:08:57;;;;;;;14.07;8.57;;;8.40;99.90;;;;;;5007695;28;20033;-70
2023/10/19 01:11:28;;;;;;;13.75;8.18;;;8.40;99.90;;;;;;5008708;28;20065;-69
2023/10/19 01:14:00;;;;;;;11.90;8.40;;;8.40;99.90;;;;;;4993781;28;20554;-69
2023/10/19 01:16:26;;;;;;;14.35;8.35;;;8.40;99.90;;;;;;5010179;28;20034;-69
2023/10/19 01:18:55;;;;;;;12.02;8.32;;;8.40;99.90;;;;;;5007569;28;20028;-69
2023/10/19 01:21:27;;;;;;;13.88;8.77;;;8.40;99.90;;;;;;5009787;28;20029;-70
2023/10/19 01:23:53;;;;;;;11.48;8.20;;;8.40;99.90;;;;;;5010988;28;20084;-69
2023/10/19 01:26:22;;;;;;;16.13;9.18;;;8.40;99.90;;;;;;5009750;28;20076;-70
2023/10/19 01:28:48;;;;;;;14.52;9.23;;;8.40;99.90;;;;;;5008751;28;20107;-69
2023/10/19 01:31:16;;;;;;;14.90;9.30;;;8.50;99.90;;;;;;5007115;28;20081;-69
2023/10/19 01:33:44;;;;;;;14.15;9.30;;;8.50;99.90;;;;;;4991847;28;20030;-71
2023/10/19 01:36:10;;;;;;;12.57;9.07;;;8.50;99.90;;;;;;5006844;28;20034;-71
2023/10/19 01:38:36;;;;;;;13.15;8.93;;;8.50;99.90;;;;;;5011781;28;20025;-70
2023/10/19 01:41:13;;;;;;;13.00;9.07;;;8.50;99.90;;;;;;5009749;28;20107;-68
2023/10/19 01:43:43;;;;;;;15.18;8.68;;;8.60;99.90;;;;;;5003706;28;20491;-69
2023/10/19 01:46:13;;;;;;;11.80;8.10;;;8.50;99.90;;;;;;5005219;28;20025;-69
2023/10/19 01:48:46;;;;;;;12.40;8.35;;;8.50;99.90;;;;;;4988210;28;20029;-70
2023/10/19 01:51:13;;;;;;;11.63;8.02;;;8.60;99.90;;;;;;5013746;28;22051;-69
2023/10/19 01:53:49;;;;;;;11.38;8.18;;;8.60;99.90;;;;;;5007197;28;20391;-69
2023/10/19 01:56:17;;;;;;;13.60;8.48;;;8.60;99.90;;;;;;5003854;28;20576;-69
2023/10/19 01:58:46;;;;;;;14.15;8.50;;;8.70;99.90;;;;;;5013486;28;20625;-71
2023/10/19 02:03:42;;;;;;;15.77;8.50;;;8.80;99.90;;;;;;5007749;28;20033;-70
2023/10/19 02:06:26;;;;;;;14.85;8.55;;;8.80;99.90;;;;;;5010992;28;20502;-70
2023/10/19 02:09:14;;;;;;;12.38;8.05;;;8.80;99.90;;;;;;5010160;28;20021;-71
2023/10/19 02:11:42;;;;;;;11.43;8.40;;;8.90;99.90;;;;;;5013555;28;20032;-70
2023/10/19 02:14:14;;;;;;;11.43;7.85;;;8.80;99.90;;;;;;4993339;28;20040;-71
2023/10/19 02:16:46;;;;;;;13.23;8.25;;;8.80;99.90;;;;;;5008839;28;20041;-69
2023/10/19 02:19:13;;;;;;;20.67;9.02;;;8.70;99.90;;;;;;5014750;28;20310;-69
2023/10/19 02:21:47;;;;;;;11.60;8.27;;;8.60;99.90;;;;;;4999613;28;20050;-69
2023/10/19 02:24:16;;;;;;;13.05;8.18;;;8.60;99.90;;;;;;5012665;28;20386;-68
2023/10/19 02:26:44;;;;;;;13.60;8.55;;;8.60;99.90;;;;;;5014722;28;20053;-71
2023/10/19 02:29:10;;;;;;;11.98;8.73;;;8.70;99.90;;;;;;5014836;28;20034;-70
2023/10/19 02:31:40;;;;;;;15.23;9.48;;;8.60;99.90;;;;;;5016618;28;20061;-71
2023/10/19 02:34:09;;;;;;;14.93;8.80;;;8.60;99.90;;;;;;5015111;28;20151;-70
2023/10/19 02:36:37;;;;;;;12.20;7.90;;;8.60;99.90;;;;;;5017384;28;20044;-70
2023/10/19 02:39:07;;;;;;;14.17;8.70;;;8.70;99.90;;;;;;5011638;28;20038;-70
2023/10/19 02:41:37;;;;;;;11.38;8.10;;;8.70;99.90;;;;;;5015738;28;21172;-70
2023/10/19 02:46:31;;;;;;;11.88;8.68;;;8.80;99.90;;;;;;5016835;28;20454;-69
2023/10/19 02:49:04;;;;;;;10.10;7.80;;;8.70;99.90;;;;;;5019248;28;20032;-71
2023/10/19 02:51:30;;;;;;;13.32;9.25;;;8.70;99.90;;;;;;4999761;28;20791;-70
2023/10/19 02:53:59;;;;;;;13.07;8.75;;;8.80;99.90;;;;;;5012951;28;20045;-70
2023/10/19 02:56:26;;;;;;;11.55;8.05;;;8.80;99.90;;;;;;4999766;28;20037;-70
2023/10/19 02:58:52;;;;;;;12.43;8.52;;;8.80;99.90;;;;;;5014055;28;20022;-70
2023/10/19 03:01:21;;;;;;;10.45;7.82;;;8.80;99.90;;;;;;5016521;28;20029;-70
2023/10/19 03:03:49;;;;;;;13.73;9.15;;;8.80;99.90;;;;;;5016001;28;20148;-70
2023/10/19 03:06:19;;;;;;;13.25;8.52;;;8.80;99.90;;;;;;4998782;28;20068;-70
2023/10/19 03:08:46;;;;;;;14.52;8.45;;;8.80;99.90;;;;;;5000188;28;20045;-71
2023/10/19 03:11:13;;;;;;;13.35;7.63;;;8.80;99.90;;;;;;5019246;28;20549;-70
2023/10/19 03:13:41;;;;;;;15.37;8.60;;;8.80;99.90;;;;;;5014309;28;20028;-70
2023/10/19 03:16:07;;;;;;;13.90;8.80;;;8.80;99.90;;;;;;4988920;28;20025;-70
2023/10/19 03:18:34;;;;;;;13.30;7.72;;;8.80;99.90;;;;;;5020079;28;20040;-71
2023/10/19 03:21:04;;;;;;;11.85;8.68;;;8.80;99.90;;;;;;5009958;28;20022;-70
2023/10/19 03:23:34;;;;;;;12.35;8.48;;;8.80;99.90;;;;;;5013782;28;20656;-71
2023/10/19 03:26:22;;;;;;;12.93;8.38;;;8.80;99.90;;;;;;4992370;28;20042;-69
2023/10/19 03:28:54;;;;;;;12.63;8.23;;;8.70;99.90;;;;;;5009894;28;20018;-70
2023/10/19 03:31:27;;;;;;;11.80;7.80;;;8.80;99.90;;;;;;5010647;28;20060;-70
2023/10/19 03:34:02;;;;;;;10.65;7.13;;;8.80;99.90;;;;;;5016456;28;20037;-70
2023/10/19 03:36:32;;;;;;;13.65;8.23;;;8.90;99.90;;;;;;5008366;28;20070;-69
2023/10/19 03:39:05;;;;;;;10.60;7.50;;;8.90;99.90;;;;;;5009261;28;20398;-70
2023/10/19 03:41:42;;;;;;;11.68;8.65;;;8.90;99.90;;;;;;4994380;28;20418;-70
2023/10/19 03:47:01;;;;;;;13.75;8.20;;;8.80;99.90;;;;;;5012508;28;20108;-70
2023/10/19 03:49:38;;;;;;;12.40;7.82;;;8.80;99.90;;;;;;5009669;28;20088;-70
2023/10/19 03:54:40;;;;;;;11.02;8.07;;;8.90;99.90;;;;;;5007336;28;20030;-70
2023/10/19 03:57:11;;;;;;;13.00;8.48;;;8.80;99.90;;;;;;5002343;28;20037;-70
2023/10/19 03:59:38;;;;;;;10.57;7.68;;;8.90;99.90;;;;;;5007227;28;20022;-71
2023/10/19 04:02:13;;;;;;;10.25;6.60;;;8.90;99.90;;;;;;4991811;28;20491;-70
2023/10/19 04:04:43;;;;;;;11.38;7.65;;;8.90;99.90;;;;;;5003993;28;20075;-71
2023/10/19 04:07:22;;;;;;;11.00;7.63;;;8.90;99.90;;;;;;4992774;28;20029;-70
2023/10/19 04:12:35;;;;;;;10.20;7.20;;;8.80;99.90;;;;;;5008157;28;20645;-70
2023/10/19 04:15:18;;;;;;;9.68;7.13;;;8.80;99.90;;;;;;5012489;28;20038;-71
2023/10/19 04:17:45;;;;;;;9.77;6.72;;;8.80;99.90;;;;;;5005632;28;20033;-69
2023/10/19 04:22:50;;;;;;;9.43;7.50;;;8.70;99.90;;;;;;5008068;28;20399;-71
2023/10/19 04:25:20;;;;;;;10.68;7.45;;;8.60;99.90;;;;;;5002055;28;20046;-69
2023/10/19 04:27:53;;;;;;;10.13;6.90;;;8.30;99.90;;;;;;4989578;28;20030;-71
2023/10/19 04:30:22;;;;;;;11.57;7.68;;;8.40;99.90;;;;;;5007197;28;20032;-68
2023/10/19 04:32:52;;;;;;;9.30;7.80;;;8.50;99.90;;;;;;5004621;28;20085;-69
2023/10/19 04:35:22;;;;;;;11.63;7.60;;;8.50;99.90;;;;;;4989127;28;20623;-70
2023/10/19 04:37:52;;;;;;;11.70;7.13;;;8.40;99.90;;;;;;4994163;28;20104;-70
2023/10/19 04:40:25;;;;;;;11.15;7.53;;;8.40;99.90;;;;;;4996919;28;20125;-71
2023/10/19 04:42:53;;;;;;;12.77;7.65;;;8.40;99.90;;;;;;4988539;28;20446;-71
2023/10/19 04:45:19;;;;;;;10.13;7.55;;;8.40;99.90;;;;;;4987792;28;20037;-70
2023/10/19 04:47:46;;;;;;;9.30;7.80;;;8.40;99.90;;;;;;5015574;28;20018;-71
2023/10/19 04:50:12;;;;;;;9.98;7.13;;;8.40;99.90;;;;;;5002090;28;20395;-71
2023/10/19 04:52:39;;;;;;;10.85;7.53;;;8.40;99.90;;;;;;5011188;28;20026;-70
2023/10/19 04:55:05;;;;;;;12.02;7.47;;;8.40;99.90;;;;;;5009392;28;20026;-71
2023/10/19 04:57:31;;;;;;;11.50;7.85;;;8.40;99.90;;;;;;4996608;28;20046;-70
2023/10/19 04:59:57;;;;;;;10.77;7.22;;;8.50;99.90;;;;;;5004665;28;20033;-72
2023/10/19 05:02:23;;;;;;;9.98;7.50;;;8.40;99.90;;;;;;5011589;28;20072;-71
2023/10/19 05:04:49;;;;;;;10.48;7.72;;;8.30;99.90;;;;;;5014886;28;20084;-69
2023/10/19 05:07:18;;;;;;;9.95;7.50;;;8.30;99.90;;;;;;5011046;28;20036;-70
2023/10/19 05:09:44;;;;;;;9.15;6.82;;;8.30;99.90;;;;;;5008368;28;20032;-71
2023/10/19 05:12:11;;;;;;;11.32;7.82;;;8.30;99.90;;;;;;5000894;28;20057;-70
2023/10/19 05:14:37;;;;;;;11.45;8.20;;;8.40;99.90;;;;;;4986122;28;20022;-70
2023/10/19 05:17:07;;;;;;;12.07;8.25;;;8.50;99.90;;;;;;5012876;28;20034;-70
2023/10/19 05:19:33;;;;;;;12.15;7.82;;;8.50;99.90;;;;;;5016703;28;20021;-69
2023/10/19 05:22:05;;;;;;;12.95;8.43;;;8.60;99.90;;;;;;5013670;28;20034;-71
2023/10/19 05:24:32;;;;;;;10.60;8.00;;;8.50;99.90;;;;;;4989771;28;20030;-69
2023/10/19 05:26:58;;;;;;;11.75;8.77;;;8.50;99.90;;;;;;5012314;28;20038;-70
2023/10/19 05:29:24;;;;;;;12.18;8.40;;;8.50;99.90;;;;;;4994443;28;20033;-70
2023/10/19 05:31:54;;;;;;;13.32;8.73;;;8.50;99.90;;;;;;4993227;28;20057;-70
2023/10/19 05:37:29;;;;;;;11.45;8.25;;;8.50;99.90;;;;;;4983414;28;20049;-69
2023/10/19 05:39:54;;;;;;;12.73;8.43;;;8.50;99.90;;;;;;5007222;28;20498;-70
2023/10/19 05:42:21;;;;;;;11.63;7.72;;;8.50;99.90;;;;;;5006027;28;20033;-69
2023/10/19 05:44:47;;;;;;;13.20;7.47;;;8.40;99.90;;;;;;5004345;28;20117;-69
2023/10/19 05:47:13;;;;;;;11.50;7.93;;;8.40;99.90;;;;;;5005578;28;20105;-69
2023/10/19 05:49:44;;;;;;;11.88;7.70;;;8.40;99.90;;;;;;5009471;28;20495;-70
2023/10/19 05:52:10;;;;;;;12.07;8.10;;;8.40;99.90;;;;;;4991763;28;20029;-70
2023/10/19 05:54:37;;;;;;;11.57;8.35;;;8.40;99.90;;;;;;5011657;28;20102;-69
2023/10/19 05:57:08;;;;;;;12.55;8.48;;;8.50;99.90;;;;;;5011593;28;20029;-69
2023/10/19 05:59:33;;;;;;;10.20;8.18;;;8.50;99.90;;;;;;5008669;28;20038;-70
2023/10/19 06:01:59;;;;;;;11.80;7.75;;;8.50;99.90;;;;;;5002715;28;20046;-69
2023/10/19 06:04:25;;;;;;;13.02;8.05;;;8.40;99.90;;;;;;5018398;28;20049;-69
2023/10/19 06:06:51;;;;;;;13.77;9.20;;;8.40;99.90;;;;;;5005555;28;20534;-69
2023/10/19 06:09:19;;;;;;;12.18;7.95;;;8.50;99.90;;;;;;4997309;28;20033;-70
2023/10/19 06:11:49;;;;;;;13.73;8.45;;;8.50;99.90;;;;;;4991807;28;20049;-71
2023/10/19 06:14:15;;;;;;;12.82;8.18;;;8.50;99.90;;;;;;5014802;28;20124;-71
2023/10/19 06:17:05;;;;;;;11.02;7.47;;;8.60;99.90;;;;;;5010466;28;20081;-71
2023/10/19 06:20:19;;;;;;;;;;;;;;;;;;;;;
2023/10/19 06:23:04;;;;;;;13.02;8.70;;;8.60;99.90;;;;;;5010954;28;20026;-72
2023/10/19 06:25:34;;;;;;;9.85;7.78;;;8.60;99.90;;;;;;4996177;28;21182;-72
2023/10/19 06:28:21;;;;;;;13.07;8.38;;;8.70;99.90;;;;;;5010162;28;20026;-71
2023/10/19 06:30:57;;;;;;;12.55;9.13;;;8.70;99.90;;;;;;4981480;28;20030;-70
2023/10/19 06:33:23;;;;;;;11.38;7.97;;;8.70;99.90;;;;;;4985860;28;20050;-72
2023/10/19 06:35:49;;;;;;;12.52;9.07;;;8.70;99.90;;;;;;5012036;28;20037;-70
2023/10/19 06:38:17;;;;;;;12.13;8.55;;;8.70;99.90;;;;;;4987385;28;20402;-73
2023/10/19 06:40:46;;;;;;;12.40;8.98;;;8.70;99.90;;;;;;5004735;28;20467;-71
2023/10/19 06:43:25;;;;;;;10.85;7.93;;;8.70;99.90;;;;;;5002550;28;20044;-70
2023/10/19 06:46:12;;;;;;;14.02;8.75;;;8.80;99.90;;;;;;4987795;28;20026;-70
2023/10/19 06:48:46;;;;;;;11.75;7.35;;;8.80;99.90;;;;;;5011560;28;20064;-71
2023/10/19 06:51:34;;;;;;;9.60;7.90;;;8.80;99.90;;;;;;4980911;28;20042;-71
2023/10/19 06:54:27;;;;;;;12.35;8.35;;;8.90;99.90;;;;;;5008989;28;20109;-71
2023/10/19 06:56:53;;;;;;;14.35;9.35;;;8.90;99.90;;;;;;5001372;28;20793;-73
2023/10/19 06:59:19;;;;;;;12.30;8.57;;;9.00;99.90;;;;;;5007845;28;20447;-70
2023/10/19 07:01:46;;;;;;;11.35;7.85;;;9.00;99.90;;;;;;4994497;28;20030;-70
2023/10/19 07:04:12;;;;;;;11.25;8.15;;;9.00;99.90;;;;;;4992005;28;20061;-71
2023/10/19 07:06:53;;;;;;;13.32;9.40;;;9.00;99.90;;;;;;4995566;28;20091;-71
2023/10/19 07:09:19;;;;;;;15.02;8.77;;;9.10;99.90;;;;;;4990822;28;20022;-69
2023/10/19 07:11:47;;;;;;;11.63;9.43;;;9.20;99.90;;;;;;5007554;28;20475;-70
2023/10/19 07:14:13;;;;;;;11.95;8.70;;;9.20;99.90;;;;;;4989064;28;20116;-70
2023/10/19 07:16:41;;;;;;;12.43;8.88;;;9.30;99.90;;;;;;5010404;28;20120;-70
2023/10/19 07:19:25;;;;;;;11.20;8.40;;;9.40;99.90;;;;;;5002161;28;20490;-70
2023/10/19 07:21:57;;;;;;;13.13;8.90;;;9.40;99.90;;;;;;5008264;28;20022;-71
2023/10/19 07:24:23;;;;;;;12.30;9.18;;;9.50;99.90;;;;;;5000087;28;20029;-70
2023/10/19 07:26:53;;;;;;;13.50;9.52;;;9.60;99.90;;;;;;5011837;28;20045;-70
2023/10/19 07:29:20;;;;;;;19.10;10.60;;;9.60;99.90;;;;;;5011642;28;20033;-71
2023/10/19 07:31:46;;;;;;;14.82;8.98;;;9.70;99.90;;;;;;4994174;28;20038;-72
2023/10/19 07:34:15;;;;;;;14.10;9.68;;;9.70;99.90;;;;;;5009077;28;20060;-71
2023/10/19 07:36:42;;;;;;;14.68;9.15;;;9.70;99.90;;;;;;4988133;28;20026;-71
2023/10/19 07:39:13;;;;;;;13.07;8.80;;;9.80;99.90;;;;;;4992816;28;20476;-71
2023/10/19 07:41:40;;;;;;;15.30;10.07;;;9.80;99.90;;;;;;5004455;28;20117;-71
2023/10/19 07:44:06;;;;;;;12.23;8.65;;;9.90;99.90;;;;;;5009780;28;20092;-71
2023/10/19 07:46:31;;;;;;;13.63;9.05;;;10.00;99.90;;;;;;5008457;28;20029;-70
2023/10/19 07:49:00;;;;;;;12.63;8.85;;;10.00;99.90;;;;;;5002099;28;20061;-71
2023/10/19 07:51:26;;;;;;;11.02;8.65;;;10.00;99.90;;;;;;5006359;28;20083;-70
2023/10/19 07:53:52;;;;;;;13.25;9.50;;;10.00;99.90;;;;;;4990669;28;20022;-71
2023/10/19 07:56:19;;;;;;;11.32;8.65;;;10.00;99.90;;;;;;4991424;28;20041;-71
2023/10/19 07:58:45;;;;;;;12.10;8.68;;;10.00;99.90;;;;;;5007741;28;20049;-71
2023/10/19 08:01:11;;;;;;;11.07;9.30;;;10.10;99.90;;;;;;4993479;28;20038;-71
2023/10/19 08:03:40;;;;;;;13.57;9.10;;;10.10;99.90;;;;;;5009099;28;20030;-70
2023/10/19 08:06:05;;;;;;;12.40;9.13;;;10.10;99.90;;;;;;5004488;28;20549;-70
2023/10/19 08:08:34;;;;;;;12.00;8.70;;;10.20;99.90;;;;;;5009954;28;20034;-68
2023/10/19 08:11:00;;;;;;;;;;;10.30;99.90;;;;;;5006029;28;20061;-68
2023/10/19 08:13:26;;;;;;;11.73;9.13;;;10.30;99.90;;;;;;5012038;28;19953;-71
2023/10/19 08:15:52;;;;;;;11.38;8.55;;;10.20;99.90;;;;;;5010075;28;20084;-70
2023/10/19 08:18:18;;;;;;;13.10;9.25;;;10.20;99.90;;;;;;5005301;28;20239;-70
2023/10/19 08:20:49;;;;;;;13.02;9.52;;;10.20;99.90;;;;;;5004518;28;20466;-71
2023/10/19 08:23:16;;;;;;;15.07;9.50;;;10.20;99.90;;;;;;5005271;28;20030;-70
2023/10/19 08:25:44;;;;;;;14.43;9.45;;;10.30;99.90;;;;;;4990800;28;20502;-72
2023/10/19 08:28:11;;;;;;;13.73;9.88;;;10.30;99.90;;;;;;5009071;28;20018;-71
2023/10/19 08:30:37;;;;;;;15.80;9.88;;;10.40;99.90;;;;;;4990980;28;20052;-72
2023/10/19 08:33:03;;;;;;;11.70;8.50;;;10.40;99.90;;;;;;5007363;28;20498;-70
2023/10/19 08:35:30;;;;;;;12.48;8.45;;;10.50;99.90;;;;;;5000790;28;20154;-71
2023/10/19 08:38:00;;;;;;;15.10;9.90;;;10.60;99.90;;;;;;5010486;28;20025;-71
2023/10/19 08:40:27;;;;;;;14.15;9.48;;;10.60;99.90;;;;;;5004470;28;20476;-71
2023/10/19 08:42:53;;;;;;;13.23;9.07;;;10.60;99.90;;;;;;5004287;28;20030;-71
2023/10/19 08:45:21;;;;;;;13.77;9.68;;;10.70;99.90;;;;;;4991668;28;20053;-72
2023/10/19 08:47:58;;;;;;;14.23;9.25;;;10.70;99.90;;;;;;5006913;28;20077;-71
2023/10/19 08:50:28;;;;;;;15.57;10.35;;;10.70;99.90;;;;;;5002251;28;20084;-71
2023/10/19 08:52:56;;;;;;;13.88;10.45;;;10.80;99.90;;;;;;4997115;28;20764;-71
2023/10/19 08:55:23;;;;;;;14.02;10.02;;;10.70;99.90;;;;;;5004476;28;20038;-71
2023/10/19 08:57:50;;;;;;;16.38;10.48;;;10.80;99.90;;;;;;4991549;28;20033;-71
2023/10/19 09:00:19;;;;;;;16.02;10.35;;;10.80;99.90;;;;;;5009824;28;20049;-71
2023/10/19 09:02:48;;;;;;;14.02;10.77;;;10.90;99.90;;;;;;4987933;28;20545;-72
2023/10/19 09:05:22;;;;;;;14.00;9.98;;;10.90;99.90;;;;;;4988266;28;20056;-71
2023/10/19 09:07:54;;;;;;;13.32;9.18;;;11.00;99.90;;;;;;5002607;28;20048;-71
2023/10/19 09:10:22;;;;;;;13.70;9.73;;;10.90;99.90;;;;;;5008128;28;20513;-71
2023/10/19 09:13:01;;;;;;;18.17;10.73;;;11.00;99.90;;;;;;5007655;28;20033;-71
2023/10/19 09:15:28;;;;;;;14.30;9.95;;;11.00;99.90;;;;;;5003359;28;20065;-70
2023/10/19 09:17:54;;;;;;;15.05;10.73;;;11.00;99.90;;;;;;5002450;28;20038;-70
2023/10/19 09:20:27;;;;;;;16.48;11.27;;;11.00;99.90;;;;;;5010624;28;20049;-71
2023/10/19 09:22:54;;;;;;;17.08;11.00;;;11.10;99.90;;;;;;5009924;28;20438;-71
2023/10/19 09:25:26;;;;;;;14.50;10.57;;;11.20;99.90;;;;;;5008506;28;20542;-72
2023/10/19 09:27:58;;;;;;;21.10;13.02;;;11.20;99.90;;;;;;4985532;28;20272;-72
2023/10/19 09:30:30;;;;;;;19.60;12.00;;;11.30;99.90;;;;;;5002926;28;20150;-72
2023/10/19 09:33:03;;;;;;;16.17;11.18;;;11.40;99.90;;;;;;4989071;28;20077;-73
2023/10/19 09:35:31;;;;;;;17.55;11.23;;;11.40;99.90;;;;;;5001429;28;20034;-73
2023/10/19 09:37:57;;;;;;;12.00;9.55;;;11.40;99.90;;;;;;5007263;28;20479;-73
2023/10/19 09:40:23;;;;;;;14.20;9.95;;;11.40;99.90;;;;;;5004965;28;20028;-73
2023/10/19 09:42:56;;;;;;;14.27;10.15;;;11.40;99.90;;;;;;5010781;28;20021;-72
2023/10/19 09:45:27;;;;;;;14.10;10.25;;;11.40;99.90;;;;;;5002536;28;20034;-75
2023/10/19 09:47:54;;;;;;;13.43;10.75;;;11.40;99.90;;;;;;4986689;28;20033;-73
2023/10/19 09:50:26;;;;;;;14.80;10.60;;;11.40;99.90;;;;;;5008822;28;20088;-73
2023/10/19 09:52:52;;;;;;;12.70;9.75;;;11.50;99.90;;;;;;5008220;28;20026;-74
2023/10/19 09:55:23;;;;;;;13.10;9.68;;;11.60;99.90;;;;;;5008254;28;20450;-73
2023/10/19 09:58:14;;;;;;;13.07;9.82;;;11.70;99.90;;;;;;4995238;28;20081;-73
2023/10/19 10:00:49;;;;;;;14.18;9.85;;;11.80;99.90;;;;;;5007004;28;20108;-73
2023/10/19 10:03:43;;;;;;;13.68;9.27;;;11.80;99.90;;;;;;5007615;28;20454;-73
2023/10/19 10:06:11;;;;;;;13.63;9.82;;;11.90;99.90;;;;;;5007805;28;20057;-73
2023/10/19 10:08:38;;;;;;;;;;;12.00;99.90;;;;;;5011578;28;20814;-73
2023/10/19 10:11:24;;;;;;;12.05;9.68;;;12.10;99.90;;;;;;5008547;28;19931;-73
2023/10/19 10:13:50;;;;;;;11.30;8.57;;;12.10;99.90;;;;;;5012322;28;20022;-73
2023/10/19 10:16:24;;;;;;;12.60;10.10;;;12.10;99.90;;;;;;4999439;28;20029;-73
2023/10/19 10:18:53;;;;;;;12.15;9.63;;;12.20;99.90;;;;;;5002066;28;20831;-73
2023/10/19 10:21:21;;;;;;;17.77;10.10;;;12.30;99.90;;;;;;5007041;28;20483;-73
2023/10/19 10:23:52;;;;;;;15.53;11.37;;;12.40;99.90;;;;;;5008727;28;20067;-73
2023/10/19 10:26:19;;;;;;;14.25;9.63;;;12.50;99.90;;;;;;4983048;28;20081;-74
2023/10/19 10:28:48;;;;;;;13.75;9.95;;;12.70;99.90;;;;;;5013456;28;20033;-73
2023/10/19 10:31:21;;;;;;;14.60;9.93;;;12.80;99.90;;;;;;5010084;28;20030;-73
2023/10/19 10:33:54;;;;;;;13.57;10.10;;;12.80;99.90;;;;;;5010307;28;20026;-73
2023/10/19 10:36:21;;;;;;;13.00;9.70;;;13.00;99.90;;;;;;5010787;28;20037;-73
2023/10/19 10:38:50;;;;;;;12.65;10.07;;;13.10;99.90;;;;;;4993092;28;20030;-73
2023/10/19 10:41:31;;;;;;;13.25;9.63;;;13.20;99.90;;;;;;5013750;28;20037;-73
2023/10/19 10:43:58;;;;;;;13.98;9.20;;;13.30;99.90;;;;;;4991723;28;20038;-74
2023/10/19 10:46:31;;;;;;;12.13;8.75;;;13.40;99.90;;;;;;5007081;28;20048;-73
2023/10/19 10:49:02;;;;;;;13.40;8.57;;;13.50;99.90;;;;;;5010524;28;20473;-73
2023/10/19 10:51:32;;;;;;;11.88;8.95;;;13.50;99.90;;;;;;5007459;28;20025;-73
2023/10/19 10:53:58;;;;;;;13.98;9.98;;;13.50;99.90;;;;;;5011989;28;20100;-74
2023/10/19 10:56:24;;;;;;;13.27;9.68;;;13.60;99.90;;;;;;5008499;28;20022;-74
2023/10/19 10:58:50;;;;;;;13.50;9.43;;;13.70;99.90;;;;;;5024678;28;20121;-74
2023/10/19 11:01:29;;;;;;;12.25;9.48;;;13.70;99.90;;;;;;5020422;28;20069;-74
2023/10/19 11:04:16;;;;;;;12.88;9.85;;;13.80;99.90;;;;;;4986692;28;20105;-74
2023/10/19 11:06:55;;;;;;;14.82;10.82;;;13.80;99.90;;;;;;4978239;28;20565;-74
2023/10/19 11:09:24;;;;;;;15.07;10.25;;;13.80;99.90;;;;;;5008965;28;20030;-74
2023/10/19 11:11:52;;;;;;;15.45;11.68;;;13.80;99.90;;;;;;5015815;28;20036;-74
2023/10/19 11:14:17;;;;;;;15.38;11.73;;;13.90;99.90;;;;;;5006864;28;20022;-74
2023/10/19 11:16:43;;;;;;;15.20;10.93;;;13.90;99.90;;;;;;5007711;28;20128;-74
2023/10/19 11:19:12;;;;;;;16.33;12.00;;;13.90;99.90;;;;;;5008969;28;20231;-74
2023/10/19 11:21:37;;;;;;;15.65;12.25;;;13.90;99.90;;;;;;5012470;28;20499;-74
2023/10/19 11:24:07;;;;;;;18.63;11.98;;;13.90;99.90;;;;;;5007036;28;20122;-74
2023/10/19 11:26:41;;;;;;;15.45;11.68;;;13.90;99.90;;;;;;5015406;28;20511;-74
2023/10/19 11:29:09;;;;;;;14.57;11.40;;;13.90;99.90;;;;;;5009127;28;20018;-75
2023/10/19 11:31:39;;;;;;;14.98;11.75;;;14.00;99.90;;;;;;5010444;28;20021;-73
2023/10/19 11:34:05;;;;;;;15.85;12.13;;;14.00;99.90;;;;;;4995754;28;20038;-74
2023/10/19 11:36:31;;;;;;;14.90;11.52;;;14.10;99.90;;;;;;5008862;28;20084;-74
2023/10/19 11:38:57;;;;;;;15.30;12.52;;;14.20;99.90;;;;;;5004669;28;20132;-73
2023/10/19 11:41:23;;;;;;;17.60;12.57;;;14.20;99.90;;;;;;5009031;28;20403;-73
2023/10/19 11:43:50;;;;;;;15.25;11.88;;;14.30;99.90;;;;;;4987537;28;20030;-73
2023/10/19 11:46:22;;;;;;;17.55;11.02;;;14.40;99.90;;;;;;5009229;28;20036;-73
2023/10/19 11:48:48;;;;;;;14.27;11.77;;;14.50;99.90;;;;;;4991199;28;20609;-73
2023/10/19 11:51:15;;;;;;;14.07;10.57;;;14.60;99.90;;;;;;5012815;28;20109;-73
2023/10/19 11:53:42;;;;;;;15.27;12.38;;;14.60;99.90;;;;;;5019648;28;20044;-73
2023/10/19 11:56:10;;;;;;;12.95;10.52;;;14.70;99.90;;;;;;5019897;28;20033;-73
2023/10/19 11:58:39;;;;;;;12.73;9.57;;;14.80;99.90;;;;;;5015510;28;20569;-73
2023/10/19 12:01:08;;;;;;;15.00;10.52;;;14.90;99.90;;;;;;5012190;28;20030;-75
2023/10/19 12:03:36;;;;;;;14.70;10.20;;;14.90;99.90;;;;;;4996692;28;20025;-73
2023/10/19 12:06:06;;;;;;;13.18;10.30;;;14.90;99.90;;;;;;5014980;28;20025;-74
2023/10/19 12:08:32;;;;;;;10.55;8.88;;;15.00;99.90;;;;;;5016205;28;20037;-73
2023/10/19 12:11:01;;;;;;;12.90;9.80;;;15.10;99.90;;;;;;5016862;28;20033;-73
2023/10/19 12:13:28;;;;;;;11.52;8.43;;;15.30;99.90;;;;;;4995908;28;20029;-74
2023/10/19 12:15:57;;;;;;;10.27;7.30;;;15.40;99.90;;;;;;5013196;28;20025;-73
2023/10/19 12:18:26;;;;;;;11.40;7.55;;;15.50;99.90;;;;;;5013859;28;20056;-74
2023/10/19 12:20:56;;;;;;;8.07;6.25;;;15.70;99.90;;;;;;5007260;28;21014;-73
2023/10/19 12:23:26;;;;;;;7.22;5.47;;;15.60;99.90;;;;;;5003423;28;20029;-74
2023/10/19 12:25:55;;;;;;;6.85;5.45;;;15.80;99.90;;;;;;5007559;28;20037;-74
2023/10/19 12:28:25;;;;;;;6.68;5.20;;;15.90;99.90;;;;;;5013107;28;20022;-73
2023/10/19 12:30:51;;;;;;;7.95;5.03;;;15.90;99.90;;;;;;4993819;28;20037;-73
2023/10/19 12:33:19;;;;;;;5.25;3.97;;;16.00;99.90;;;;;;4997437;28;20033;-73
2023/10/19 12:35:57;;;;;;;6.28;4.57;;;15.90;99.90;;;;;;4995534;28;20026;-72
2023/10/19 12:38:23;;;;;;;5.35;4.30;;;15.90;99.90;;;;;;5014040;28;20037;-72
2023/10/19 12:40:50;;;;;;;6.20;4.57;;;16.00;99.90;;;;;;5008553;28;20510;-73
2023/10/19 12:43:22;;;;;;;5.75;4.50;;;16.10;99.90;;;;;;5014344;28;20502;-73
2023/10/19 12:46:42;;;;;;;;;;;;;;;;;;;;;
2023/10/19 12:49:13;;;;;;;7.05;5.22;;;16.60;99.90;;;;;;4992103;28;20121;-74
2023/10/19 12:51:49;;;;;;;9.02;6.40;;;16.60;99.90;;;;;;5001555;28;20032;-74
2023/10/19 12:54:14;;;;;;;7.85;5.43;;;16.60;99.90;;;;;;5006988;28;20033;-74
2023/10/19 12:56:40;;;;;;;6.38;5.63;;;16.60;99.90;;;;;;5017621;28;20033;-74
2023/10/19 12:59:34;;;;;;;6.55;4.93;;;16.70;99.90;;;;;;5023554;28;20026;-74
2023/10/19 13:02:02;;;;;;;8.23;5.53;;;16.70;99.90;;;;;;5007488;28;20120;-73
2023/10/19 13:04:46;;;;;;;6.43;5.03;;;16.80;99.90;;;;;;5014225;28;20109;-76
2023/10/19 13:07:12;;;;;;;8.98;5.35;;;16.90;99.90;;;;;;5012417;28;20030;-72
2023/10/19 13:09:38;;;;;;;7.15;5.82;;;16.90;99.90;;;;;;5006945;28;20026;-72
2023/10/19 13:12:07;;;;;;;6.53;5.13;;;16.90;99.90;;;;;;5009108;28;20026;-72
2023/10/19 13:14:34;;;;;;;6.03;4.72;;;16.90;99.90;;;;;;4989822;28;20060;-73
2023/10/19 13:17:00;;;;;;;5.32;4.50;;;16.90;99.90;;;;;;4985687;28;20040;-72
2023/10/19 13:19:29;;;;;;;5.30;4.10;;;16.90;99.90;;;;;;4992800;28;20033;-73
2023/10/19 13:21:57;;;;;;;6.60;4.25;;;16.90;99.90;;;;;;5010837;28;20021;-73
2023/10/19 13:24:24;;;;;;;5.93;4.03;;;16.90;99.90;;;;;;4991809;28;20821;-73
2023/10/19 13:26:50;;;;;;;4.85;4.25;;;17.00;99.90;;;;;;5006818;28;20427;-74